Time;durP1;ratioP1;P1;durP2;ratioP2;P2;SDS_P1;SDS_P2;PMS_P1;PMS_P2;Temp;Humidity;BMP_temperature;BMP_pressure;BME280_temperature;BME280_humidity;BME280_pressure;Samples;Min_cycle;Max_cycle;Signal;HPM_P1;HPM_P2
2022/08/24 00:00:20;;;;;;;27.73;15.32;;;;;;;19.15;93.32;98772.64;1644197;87;25727;-60
2022/08/24 00:02:48;;;;;;;32.38;14.58;;;;;;;19.15;93.29;98769.29;1644113;87;25643;-60
2022/08/24 00:05:16;;;;;;;29.50;13.90;;;;;;;19.15;93.27;98763.73;1643912;87;27351;-60
2022/08/24 00:07:42;;;;;;;31.02;15.13;;;;;;;19.08;93.50;98753.86;1644050;87;25954;-60
2022/08/24 00:10:12;;;;;;;26.20;14.03;;;;;;;19.06;93.46;98753.42;1643876;87;25470;-60
2022/08/24 00:12:39;;;;;;;29.75;14.90;;;;;;;19.05;93.58;98751.80;1644035;87;26251;-60
2022/08/24 00:15:10;;;;;;;29.40;14.63;;;;;;;19.03;93.83;98755.55;1644497;87;25508;-60
2022/08/24 00:17:37;;;;;;;29.95;15.28;;;;;;;19.01;93.94;98754.52;1644134;87;27417;-60
2022/08/24 00:20:06;;;;;;;25.15;13.53;;;;;;;18.99;93.80;98758.24;1644196;87;25480;-60
2022/08/24 00:22:32;;;;;;;28.57;14.53;;;;;;;18.98;93.97;98753.06;1644404;87;25529;-60
2022/08/24 00:24:58;;;;;;;27.62;14.38;;;;;;;18.97;94.04;98748.08;1643945;87;25791;-60
2022/08/24 00:27:25;;;;;;;23.07;12.88;;;;;;;18.96;94.14;98752.03;1647788;87;25514;-60
2022/08/24 00:29:51;;;;;;;28.02;14.70;;;;;;;18.96;94.32;98753.42;1649057;86;27269;-60
2022/08/24 00:32:18;;;;;;;29.48;14.00;;;;;;;18.94;94.30;98753.80;1649292;87;25598;-60
2022/08/24 00:34:44;;;;;;;24.70;13.85;;;;;;;18.98;94.29;98752.48;1649017;87;25737;-60
2022/08/24 00:37:10;;;;;;;25.45;13.08;;;;;;;18.99;94.19;98756.05;1648718;87;25722;-60
2022/08/24 00:39:36;;;;;;;28.10;14.73;;;;;;;18.96;94.26;98757.59;1649096;87;25738;-60
2022/08/24 00:42:03;;;;;;;33.70;13.95;;;;;;;18.97;94.37;98763.35;1648698;87;27533;-60
2022/08/24 00:44:29;;;;;;;26.68;13.43;;;;;;;18.97;94.21;98762.56;1649116;87;25781;-60
2022/08/24 00:47:07;;;;;;;30.45;13.90;;;;;;;18.94;94.58;98756.57;1648645;87;25647;-60
2022/08/24 00:49:41;;;;;;;28.38;13.58;;;;;;;18.92;94.56;98749.79;1647965;87;25755;-60
2022/08/24 00:52:23;;;;;;;26.40;13.18;;;;;;;18.89;94.51;98748.56;1649012;87;25647;-60
2022/08/24 00:54:57;;;;;;;28.27;14.07;;;;;;;18.89;94.79;98754.11;1648862;87;28324;-60
2022/08/24 00:57:28;;;;;;;30.32;14.38;;;;;;;18.93;94.74;98754.16;1648813;87;25663;-60
2022/08/24 01:00:00;;;;;;;27.00;13.90;;;;;;;18.94;94.65;98749.63;1648966;86;25651;-60
2022/08/24 01:02:33;;;;;;;29.18;13.40;;;;;;;18.93;94.38;98754.16;1648951;87;25716;-60
2022/08/24 01:05:07;;;;;;;26.80;13.43;;;;;;;18.96;94.87;98767.31;1648714;87;25715;-60
2022/08/24 01:07:35;;;;;;;30.52;14.40;;;;;;;18.97;94.55;98769.52;1649061;87;27394;-60
2022/08/24 01:10:07;;;;;;;29.75;13.72;;;;;;;18.97;94.38;98768.13;1648922;87;25713;-60
2022/08/24 01:12:35;;;;;;;31.05;14.60;;;;;;;18.99;94.25;98770.73;1649037;87;25545;-60
2022/08/24 01:15:06;;;;;;;31.55;14.60;;;;;;;18.93;94.42;98781.35;1648642;87;26562;-60
2022/08/24 01:20:19;;;;;;;32.23;14.20;;;;;;;18.99;94.36;98779.07;1648714;87;25716;-60
2022/08/24 01:23:12;;;;;;;30.23;14.23;;;;;;;18.98;94.24;98788.58;1648956;87;25722;-60
2022/08/24 01:25:43;;;;;;;29.85;14.33;;;;;;;18.96;94.21;98789.52;1649056;87;25484;-60
2022/08/24 01:28:18;;;;;;;28.23;14.00;;;;;;;18.99;94.56;98787.40;1648959;86;26351;-60
2022/08/24 01:30:45;;;;;;;29.50;13.40;;;;;;;19.01;94.33;98782.87;1648918;87;25521;-60
2022/08/24 01:33:25;;;;;;;26.95;13.90;;;;;;;18.99;94.48;98787.98;1648729;87;27322;-60
2022/08/24 01:36:15;;;;;;;25.65;13.72;;;;;;;18.98;94.35;98791.36;1649008;87;33202;-60
2022/08/24 01:38:42;;;;;;;28.60;13.72;;;;;;;19.01;94.28;98795.37;1648757;87;25766;-60
2022/08/24 01:41:08;;;;;;;26.60;13.55;;;;;;;18.99;94.23;98795.73;1648756;87;25695;-60
2022/08/24 01:43:34;;;;;;;30.12;14.50;;;;;;;18.98;94.33;98789.16;1648595;87;25513;-60
2022/08/24 01:46:01;;;;;;;28.52;14.25;;;;;;;19.00;94.55;98791.77;1648796;87;28342;-60
2022/08/24 01:48:27;;;;;;;31.10;14.35;;;;;;;19.02;94.58;98790.83;1649417;87;25627;-60
2022/08/24 01:50:53;;;;;;;29.72;15.00;;;;;;;19.06;94.18;98788.13;1648745;87;25560;-60
2022/08/24 01:53:20;;;;;;;33.67;15.68;;;;;;;19.10;94.19;98786.25;1648792;87;26474;-60
2022/08/24 01:55:46;;;;;;;27.10;13.48;;;;;;;19.08;93.94;98784.41;1648791;87;25512;-60
2022/08/24 01:58:12;;;;;;;30.45;15.05;;;;;;;19.04;94.17;98789.08;1648576;87;29518;-60
2022/08/24 02:00:39;;;;;;;29.23;13.98;;;;;;;19.04;94.20;98786.30;1648565;87;25777;-60
2022/08/24 02:03:06;;;;;;;30.85;14.15;;;;;;;19.00;94.18;98785.44;1648664;87;25718;-60
2022/08/24 02:05:33;;;;;;;27.05;14.47;;;;;;;19.03;94.27;98786.09;1648959;87;25726;-60
2022/08/24 02:08:00;;;;;;;28.92;13.58;;;;;;;18.99;94.37;98782.42;1648886;86;25511;-60
2022/08/24 02:10:28;;;;;;;30.27;14.33;;;;;;;19.00;94.37;98781.27;1648651;87;26733;-60
2022/08/24 02:12:58;;;;;;;33.48;14.95;;;;;;;18.99;94.52;98778.25;1648733;87;25797;-60
2022/08/24 02:15:40;;;;;;;29.50;14.33;;;;;;;19.06;94.51;98777.02;1648802;87;25647;-60
2022/08/24 02:18:04;;;;;;;28.85;13.53;;;;;;;19.08;94.45;98772.48;1647929;87;25571;-60
2022/08/24 02:20:30;;;;;;;30.75;13.88;;;;;;;19.10;94.47;98779.88;1649117;87;25472;-60
2022/08/24 02:22:57;;;;;;;33.42;13.98;;;;;;;19.10;94.53;98789.60;1649054;87;27554;-60
2022/08/24 02:25:25;;;;;;;30.90;13.83;;;;;;;19.09;94.49;98791.59;1648889;87;25672;-60
2022/08/24 02:27:51;;;;;;;30.30;13.68;;;;;;;19.10;94.68;98788.21;1648653;86;25651;-61
2022/08/24 02:30:18;;;;;;;35.90;13.62;;;;;;;19.07;94.57;98791.12;1648886;87;25846;-60
2022/08/24 02:32:45;;;;;;;33.73;13.70;;;;;;;19.04;94.68;98787.11;1648684;87;25530;-60
2022/08/24 02:35:12;;;;;;;35.60;13.93;;;;;;;19.02;94.77;98792.22;1648863;87;28174;-60
2022/08/24 02:37:39;;;;;;;32.13;13.48;;;;;;;19.03;95.21;98791.64;1648570;86;25689;-60
2022/08/24 02:40:07;;;;;;;30.23;13.13;;;;;;;19.04;95.07;98789.89;1648834;87;25514;-60
2022/08/24 02:42:33;;;;;;;34.15;13.72;;;;;;;19.04;94.81;98791.28;1648870;87;26460;-60
2022/08/24 02:45:01;;;;;;;35.80;12.78;;;;;;;19.00;94.91;98793.16;1648633;87;25653;-60
2022/08/24 02:47:28;;;;;;;35.98;13.00;;;;;;;19.03;95.04;98800.76;1648591;87;27517;-60
2022/08/24 02:49:54;;;;;;;32.95;13.10;;;;;;;19.02;95.02;98810.27;1648828;87;25513;-60
2022/08/24 02:52:20;;;;;;;29.85;11.95;;;;;;;19.00;95.10;98807.66;1649252;87;25513;-60
2022/08/24 02:54:46;;;;;;;26.23;12.30;;;;;;;18.97;95.22;98807.00;1648989;87;25845;-60
2022/08/24 02:57:12;;;;;;;28.23;12.28;;;;;;;18.92;95.51;98801.16;1648757;87;25668;-60
2022/08/24 02:59:39;;;;;;;27.48;11.57;;;;;;;18.89;95.76;98805.48;1648969;87;27474;-60
2022/08/24 03:02:06;;;;;;;29.20;12.95;;;;;;;18.97;96.28;98804.22;1648638;87;25833;-60
2022/08/24 03:04:32;;;;;;;28.90;13.00;;;;;;;19.01;95.84;98803.13;1648939;86;25478;-60
2022/08/24 03:06:59;;;;;;;28.92;12.80;;;;;;;19.06;95.93;98797.25;1648577;87;25781;-60
2022/08/24 03:09:25;;;;;;;30.55;13.13;;;;;;;19.11;95.60;98806.50;1648572;87;25506;-60
2022/08/24 03:11:51;;;;;;;29.90;13.03;;;;;;;19.10;95.41;98801.52;1648972;87;27496;-60
2022/08/24 03:14:18;;;;;;;30.02;12.88;;;;;;;19.09;95.57;98804.09;1648722;87;25472;-60
2022/08/24 03:16:45;;;;;;;30.50;13.18;;;;;;;19.11;95.65;98799.56;1648619;87;25472;-60
2022/08/24 03:19:12;;;;;;;31.42;13.43;;;;;;;19.12;95.55;98803.36;1648722;86;25942;-61
2022/08/24 03:21:38;;;;;;;26.82;12.30;;;;;;;19.12;95.73;98804.75;1648653;87;25521;-61
2022/08/24 03:24:05;;;;;;;25.43;12.40;;;;;;;19.18;95.72;98806.05;1648602;87;27439;-61
2022/08/24 03:26:32;;;;;;;25.92;11.73;;;;;;;19.15;95.36;98802.63;1648768;87;25492;-60
2022/08/24 03:28:59;;;;;;;27.58;12.55;;;;;;;19.14;95.58;98805.16;1620981;88;25502;-60
2022/08/24 03:31:26;;;;;;;30.35;13.00;;;;;;;19.11;95.53;98807.89;1620797;88;25943;-60
2022/08/24 03:33:52;;;;;;;26.25;12.58;;;;;;;19.15;96.12;98811.53;1620966;88;25530;-60
2022/08/24 03:36:18;;;;;;;25.62;11.85;;;;;;;19.21;96.09;98803.11;1620626;88;27583;-61
2022/08/24 03:38:57;;;;;;;26.93;12.03;;;;;;;19.27;96.01;98812.75;1621088;88;25498;-60
2022/08/24 03:41:29;;;;;;;23.98;11.38;;;;;;;19.31;95.75;98814.19;1620519;88;25656;-60
2022/08/24 03:43:58;;;;;;;25.32;11.08;;;;;;;19.35;95.92;98819.25;1620991;88;25774;-60
2022/08/24 03:46:29;;;;;;;22.65;11.53;;;;;;;19.43;95.73;98822.95;1620962;88;25522;-60
2022/08/24 03:48:58;;;;;;;25.02;11.25;;;;;;;19.35;94.64;98818.43;1621138;88;27585;-60
2022/08/24 03:51:27;;;;;;;22.95;11.25;;;;;;;19.26;94.99;98816.68;1620767;88;25675;-60
2022/08/24 03:53:55;;;;;;;23.07;11.30;;;;;;;19.21;95.11;98822.56;1620944;88;25627;-60
2022/08/24 03:56:21;;;;;;;20.00;10.75;;;;;;;19.18;95.29;98821.91;1620911;88;25707;-60
2022/08/24 03:58:48;;;;;;;19.20;10.48;;;;;;;19.14;95.38;98819.05;1620796;88;25632;-60
2022/08/24 04:01:16;;;;;;;20.43;10.43;;;;;;;19.16;95.64;98817.30;1620660;88;27447;-60
2022/08/24 04:03:46;;;;;;;22.05;11.15;;;;;;;19.14;95.59;98811.33;1620687;88;25807;-60
2022/08/24 04:06:15;;;;;;;23.30;11.97;;;;;;;19.14;96.00;98813.50;1621197;88;25800;-60
2022/08/24 04:08:42;;;;;;;18.37;10.15;;;;;;;19.16;96.26;98813.94;1620906;88;25747;-60
2022/08/24 04:11:14;;;;;;;18.67;10.23;;;;;;;19.23;95.93;98814.64;1620676;88;25715;-60
2022/08/24 04:13:40;;;;;;;22.22;10.05;;;;;;;19.22;95.65;98808.06;1620968;88;27466;-60
2022/08/24 04:16:12;;;;;;;22.45;11.38;;;;;;;19.23;95.91;98805.52;1621111;88;25778;-60
2022/08/24 04:18:39;;;;;;;19.62;11.00;;;;;;;19.26;96.19;98806.17;1621160;88;25712;-60
2022/08/24 04:21:06;;;;;;;19.27;11.40;;;;;;;19.33;96.09;98799.92;1621008;88;26568;-60
2022/08/24 04:23:33;;;;;;;20.43;10.65;;;;;;;19.37;95.83;98809.93;1621033;88;25490;-60
2022/08/24 04:26:04;;;;;;;22.45;11.35;;;;;;;19.36;95.67;98811.69;1620812;88;27854;-61
2022/08/24 04:28:31;;;;;;;20.70;11.43;;;;;;;19.37;95.87;98802.98;1636752;87;25464;-60
2022/08/24 04:30:58;;;;;;;22.22;10.32;;;;;;;19.37;95.42;98803.59;1643822;87;25645;-61
2022/08/24 04:33:24;;;;;;;23.20;11.63;;;;;;;19.38;95.73;98801.83;1643860;87;26600;-60
2022/08/24 04:35:50;;;;;;;21.70;11.38;;;;;;;19.37;95.64;98807.77;1643914;87;25648;-60
2022/08/24 04:38:18;;;;;;;22.85;11.22;;;;;;;19.38;95.84;98803.80;1643762;87;27476;-60
2022/08/24 04:40:47;;;;;;;23.05;11.60;;;;;;;19.39;96.08;98802.05;1644358;87;25496;-61
2022/08/24 04:43:15;;;;;;;22.02;12.10;;;;;;;19.46;96.10;98808.90;1637502;87;25702;-61
2022/08/24 04:45:45;;;;;;;24.45;11.60;;;;;;;19.53;95.96;98810.41;1639162;87;27808;-61
2022/08/24 04:48:13;;;;;;;23.10;11.35;;;;;;;19.59;95.61;98809.50;1640955;87;26083;-61
2022/08/24 04:50:42;;;;;;;22.67;11.53;;;;;;;19.54;95.32;98801.70;1639323;87;27583;-60
2022/08/24 04:53:12;;;;;;;23.75;12.03;;;;;;;19.49;95.70;98806.16;1638717;87;25971;-61
2022/08/24 04:55:49;;;;;;;25.80;12.40;;;;;;;19.50;95.62;98806.98;1638973;87;25536;-60
2022/08/24 04:58:17;;;;;;;25.27;12.45;;;;;;;19.46;95.54;98813.88;1638575;87;25688;-60
2022/08/24 05:00:44;;;;;;;21.60;11.43;;;;;;;19.43;95.98;98812.63;1638644;87;25472;-60
2022/08/24 05:03:12;;;;;;;24.52;12.43;;;;;;;19.48;95.92;98813.48;1638548;87;29528;-61
2022/08/24 05:05:45;;;;;;;26.45;11.97;;;;;;;19.49;95.62;98817.89;1638754;87;25483;-60
2022/08/24 05:08:13;;;;;;;24.65;11.53;;;;;;;19.54;95.86;98821.73;1639131;87;25697;-61
2022/08/24 05:10:43;;;;;;;24.02;11.00;;;;;;;19.54;95.63;98812.81;1638833;87;25811;-61
2022/08/24 05:13:10;;;;;;;25.37;12.30;;;;;;;19.55;95.46;98816.41;1639041;87;25751;-61
2022/08/24 05:15:46;;;;;;;26.80;12.30;;;;;;;19.52;95.65;98817.93;1638824;87;27672;-61
2022/08/24 05:18:16;;;;;;;26.60;12.25;;;;;;;19.48;95.62;98814.30;1639797;87;25641;-60
2022/08/24 05:20:45;;;;;;;23.85;12.43;;;;;;;19.53;95.84;98820.95;1643918;87;25715;-60
2022/08/24 05:23:12;;;;;;;19.90;11.05;;;;;;;19.49;95.84;98817.89;1643482;87;27821;-61
2022/08/24 05:25:41;;;;;;;21.70;11.43;;;;;;;19.50;95.75;98819.48;1641227;87;25804;-61
2022/08/24 05:28:07;;;;;;;23.18;11.40;;;;;;;19.54;96.15;98830.06;1639719;87;27533;-61
2022/08/24 05:30:34;;;;;;;22.75;11.55;;;;;;;19.62;95.92;98827.64;1634308;87;25690;-61
2022/08/24 05:33:00;;;;;;;23.55;11.75;;;;;;;19.66;95.74;98828.49;1638800;87;26361;-61
2022/08/24 05:35:26;;;;;;;24.47;11.28;;;;;;;19.64;95.48;98823.91;1610861;88;26231;-61
2022/08/24 05:37:52;;;;;;;20.43;10.82;;;;;;;19.71;95.66;98819.65;1621790;88;25785;-61
2022/08/24 05:40:20;;;;;;;16.15;10.20;;;;;;;19.71;95.15;98826.59;1614366;88;27630;-60
2022/08/24 05:42:47;;;;;;;19.77;10.05;;;;;;;19.73;95.23;98824.23;1617738;88;25830;-61
2022/08/24 05:45:13;;;;;;;18.07;9.95;;;;;;;19.78;95.02;98818.37;1613910;88;25734;-61
2022/08/24 05:47:39;;;;;;;17.07;10.13;;;;;;;19.79;95.33;98826.91;1617420;88;25808;-61
2022/08/24 05:50:08;;;;;;;18.48;10.15;;;;;;;19.79;94.81;98829.12;1617879;88;25800;-60
2022/08/24 05:52:34;;;;;;;15.43;9.68;;;;;;;19.88;95.43;98826.66;1615307;88;27404;-60
2022/08/24 05:55:02;;;;;;;15.38;9.88;;;;;;;19.93;94.72;98823.56;1617614;88;25651;-61
2022/08/24 05:57:32;;;;;;;16.00;9.13;;;;;;;19.94;94.49;98825.97;1617703;88;25798;-60
2022/08/24 05:59:59;;;;;;;18.07;10.08;;;;;;;19.96;94.65;98829.77;1615619;88;26008;-60
2022/08/24 06:02:25;;;;;;;17.60;9.83;;;;;;;19.98;94.53;98819.66;1617631;88;25693;-61
2022/08/24 06:04:52;;;;;;;13.93;8.70;;;;;;;20.02;94.49;98816.38;1617433;88;27488;-61
2022/08/24 06:07:19;;;;;;;14.13;8.68;;;;;;;20.12;94.36;98810.77;1615916;88;25766;-61
2022/08/24 06:09:46;;;;;;;15.38;9.20;;;;;;;20.22;93.62;98812.89;1617533;88;25643;-61
2022/08/24 06:12:13;;;;;;;14.65;9.18;;;;;;;20.27;93.20;98813.16;1617576;88;26061;-61
2022/08/24 06:14:39;;;;;;;15.08;9.45;;;;;;;20.26;93.08;98819.30;1619235;87;25707;-61
2022/08/24 06:17:07;;;;;;;14.50;9.05;;;;;;;20.20;92.89;98817.24;1617838;88;27554;-61
2022/08/24 06:19:35;;;;;;;14.83;9.43;;;;;;;20.15;92.69;98811.41;1617669;88;25811;-61
2022/08/24 06:22:02;;;;;;;15.20;9.08;;;;;;;20.16;93.66;98819.38;1617417;88;25905;-61
2022/08/24 06:27:21;;;;;;;14.25;8.73;;;;;;;20.25;92.90;98821.89;1619121;87;26561;-61
2022/08/24 06:29:51;;;;;;;15.50;9.40;;;;;;;20.26;92.76;98833.22;1614046;87;28643;-61
2022/08/24 06:32:18;;;;;;;15.88;8.93;;;;;;;20.20;92.77;98840.28;1641264;87;25810;-61
2022/08/24 06:34:45;;;;;;;13.48;8.95;;;;;;;20.20;93.08;98845.06;1640457;87;25647;-61
2022/08/24 06:37:13;;;;;;;12.70;8.83;;;;;;;20.16;92.74;98841.64;1640420;87;25834;-61
2022/08/24 06:39:39;;;;;;;14.50;9.38;;;;;;;20.06;92.50;98840.86;1637014;87;25742;-61
2022/08/24 06:42:06;;;;;;;12.90;9.05;;;;;;;20.02;93.20;98848.36;1640558;87;27813;-61
2022/08/24 06:44:33;;;;;;;14.75;8.98;;;;;;;20.09;92.98;98856.02;1640333;87;26518;-61
2022/08/24 06:47:00;;;;;;;13.78;8.80;;;;;;;20.04;92.42;98854.36;1638337;87;25658;-60
2022/08/24 06:49:26;;;;;;;13.38;9.05;;;;;;;19.94;92.74;98859.34;1640783;87;25726;-60
2022/08/24 06:51:53;;;;;;;15.05;9.38;;;;;;;19.91;92.95;98859.28;1640493;87;25710;-60
2022/08/24 06:54:20;;;;;;;13.00;8.90;;;;;;;19.92;92.94;98856.13;1637897;87;27877;-61
2022/08/24 06:56:46;;;;;;;13.18;9.15;;;;;;;19.94;93.11;98852.39;1640622;87;25804;-60
2022/08/24 06:59:13;;;;;;;14.78;9.85;;;;;;;19.90;93.27;98855.72;1640456;87;26503;-61
2022/08/24 07:01:40;;;;;;;13.58;8.98;;;;;;;19.94;93.43;98854.36;1637926;87;25795;-60
2022/08/24 07:04:06;;;;;;;16.07;9.60;;;;;;;19.96;93.27;98859.55;1640613;87;25778;-60
2022/08/24 07:06:35;;;;;;;15.32;10.25;;;;;;;19.89;93.01;98858.87;1640236;87;27444;-61
2022/08/24 07:09:02;;;;;;;17.40;11.55;;;;;;;19.89;93.85;98865.81;1638408;87;25722;-60
2022/08/24 07:11:31;;;;;;;19.82;11.73;;;;;;;19.98;94.02;98862.20;1640609;87;25707;-61
2022/08/24 07:13:59;;;;;;;21.02;12.18;;;;;;;20.11;93.62;98866.98;1640062;87;25989;-61
2022/08/24 07:16:26;;;;;;;17.98;11.05;;;;;;;20.11;93.03;98866.98;1640629;87;25686;-61
2022/08/24 07:18:52;;;;;;;20.68;11.95;;;;;;;20.16;93.26;98868.06;1641043;87;27500;-60
2022/08/24 07:21:20;;;;;;;34.78;23.07;;;;;;;20.25;93.08;98854.46;1636329;87;26555;-61
2022/08/24 07:23:48;;;;;;;20.40;14.05;;;;;;;20.30;92.30;98852.15;1637482;87;26246;-61
2022/08/24 07:26:24;;;;;;;16.32;9.85;;;;;;;20.28;92.03;98854.52;1640273;87;25802;-62
2022/08/24 07:28:54;;;;;;;11.05;8.28;;;;;;;20.25;92.02;98866.41;1640563;87;25787;-63
2022/08/24 07:31:21;;;;;;;;;;;;;;;20.21;91.21;98873.09;1639932;87;28625;-62
2022/08/24 07:33:48;;;;;;;16.05;9.45;;;;;;;20.19;91.50;98873.47;1640703;87;26316;-62
2022/08/24 07:36:16;;;;;;;17.65;10.35;;;;;;;20.23;91.95;98864.58;1640249;87;25885;-61
2022/08/24 07:38:43;;;;;;;19.98;10.30;;;;;;;20.37;92.16;98863.98;1640921;87;25800;-62
2022/08/24 07:41:09;;;;;;;11.70;8.33;;;;;;;20.43;91.58;98870.03;1640673;87;25800;-61
2022/08/24 07:43:36;;;;;;;13.50;9.28;;;;;;;20.41;90.69;98875.19;1640210;87;27500;-62
2022/08/24 07:46:05;;;;;;;13.98;9.40;;;;;;;20.49;92.00;98875.48;1640731;87;25693;-62
2022/08/24 07:48:31;;;;;;;16.75;11.00;;;;;;;20.64;91.76;98872.30;1640938;87;25699;-61
2022/08/24 07:51:07;;;;;;;14.47;9.93;;;;;;;20.87;91.06;98872.02;1638528;85;25777;-61
2022/08/24 07:53:35;;;;;;;11.80;8.65;;;;;;;20.96;90.73;98871.16;1638929;87;25805;-61
2022/08/24 07:56:02;;;;;;;20.37;11.08;;;;;;;21.04;89.71;98873.45;1640073;87;27629;-61
2022/08/24 07:58:30;;;;;;;25.37;13.93;;;;;;;21.06;88.48;98880.23;1639502;87;25962;-61
2022/08/24 08:00:56;;;;;;;14.83;10.60;;;;;;;;;;1639470;87;25715;-60
2022/08/24 08:03:25;;;;;;;19.82;12.10;;;;;;;21.08;89.08;98887.41;1640366;87;25775;-61
2022/08/24 08:06:10;;;;;;;20.20;13.18;;;;;;;21.13;88.94;98900.40;1639885;87;25788;-62
2022/08/24 08:08:39;;;;;;;15.20;10.82;;;;;;;21.17;88.69;98903.23;1635211;87;27516;-63
2022/08/24 08:11:07;;;;;;;23.70;13.28;;;;;;;21.12;88.18;98903.56;1639991;87;25297;-62
2022/08/24 08:13:36;;;;;;;18.55;10.93;;;;;;;21.11;87.44;98900.58;1640415;87;25722;-62
2022/08/24 08:16:04;;;;;;;15.30;10.48;;;;;;;21.14;88.31;98892.85;1639512;87;26052;-63
2022/08/24 08:18:32;;;;;;;14.07;10.20;;;;;;;21.20;87.54;98898.30;1639857;87;25726;-62
2022/08/24 08:20:58;;;;;;;14.18;9.90;;;;;;;21.25;87.61;98901.34;1641262;85;27471;-61
2022/08/24 08:26:19;;;;;;;14.50;9.30;;;;;;;21.43;84.19;98902.93;1638610;87;25817;-63
2022/08/24 08:28:47;;;;;;;12.00;9.63;;;;;;;21.30;85.73;98901.80;1639770;85;26605;-62
2022/08/24 08:31:14;;;;;;;13.58;9.40;;;;;;;21.29;86.04;98911.34;1643003;87;25861;-62
2022/08/24 08:33:41;;;;;;;13.20;9.38;;;;;;;21.21;85.43;98913.83;1642505;87;27462;-63
2022/08/24 08:36:13;;;;;;;14.75;10.00;;;;;;;21.14;85.85;98915.14;1643071;87;25714;-61
2022/08/24 08:38:42;;;;;;;15.18;10.32;;;;;;;21.10;86.14;98910.13;1644527;87;25825;-60
2022/08/24 08:41:41;;;;;;;13.68;9.33;;;;;;;21.12;86.65;98911.34;1646950;87;25799;-60
2022/08/24 08:44:24;;;;;;;14.87;10.25;;;;;;;21.16;86.35;98907.22;1646937;87;25805;-61
2022/08/24 08:47:29;;;;;;;13.58;9.93;;;;;;;21.18;86.79;98900.66;1552027;91;27500;-63
2022/08/24 08:50:17;;;;;;;16.27;10.50;;;;;;;21.25;86.89;98906.91;1542006;92;25845;-62
2022/08/24 08:52:58;;;;;;;14.75;10.25;;;;;;;21.41;86.93;98899.71;1542763;91;25814;-63
2022/08/24 08:56:13;;;;;;;16.15;10.75;;;;;;;21.55;86.43;98899.88;1591782;90;25847;-63
2022/08/24 08:59:22;;;;;;;15.10;10.65;;;;;;;21.59;85.98;98904.11;1592262;90;25849;-62
2022/08/24 09:02:31;;;;;;;17.90;11.80;;;;;;;21.70;84.83;98911.16;1592340;90;27478;-63
2022/08/24 09:05:34;;;;;;;16.75;11.60;;;;;;;21.58;84.70;98918.43;1567694;91;25806;-61
2022/08/24 09:08:18;;;;;;;18.00;11.75;;;;;;;21.45;85.08;98921.48;1592116;90;25753;-61
2022/08/24 09:11:31;;;;;;;15.25;11.55;;;;;;;21.34;85.72;98919.96;1591872;90;25845;-60
2022/08/24 09:14:19;;;;;;;18.30;12.03;;;;;;;21.36;85.42;98923.16;1583315;90;25902;-60
2022/08/24 09:17:00;;;;;;;16.62;11.25;;;;;;;21.31;85.92;98926.30;1587573;90;27456;-60
2022/08/24 09:19:43;;;;;;;16.90;12.13;;;;;;;21.26;85.84;98924.65;1587994;90;25803;-60
2022/08/24 09:22:17;;;;;;;18.35;12.90;;;;;;;21.26;86.16;98928.83;1603991;85;25798;-61
2022/08/24 09:24:55;;;;;;;19.15;13.40;;;;;;;21.36;86.63;98925.94;1674496;85;25701;-61
2022/08/24 09:27:46;;;;;;;19.40;13.22;;;;;;;21.53;86.70;98918.18;1674598;85;25626;-61
2022/08/24 09:30:23;;;;;;;18.17;13.05;;;;;;;21.63;85.77;98925.85;1674016;85;27522;-61
2022/08/24 09:33:09;;;;;;;18.92;12.33;;;;;;;21.71;85.25;98926.73;1669117;85;25437;-61
2022/08/24 09:35:52;;;;;;;20.72;12.95;;;;;;;21.77;84.34;98925.23;1670233;85;25734;-61
2022/08/24 09:38:46;;;;;;;20.45;12.95;;;;;;;21.68;84.45;98920.52;1670157;85;26973;-60
2022/08/24 09:42:12;;;;;;;19.27;12.93;;;;;;;21.64;84.39;98913.50;1666118;85;25754;-61
2022/08/24 09:45:16;;;;;;;19.60;13.22;;;;;;;21.57;84.63;98920.41;1670884;85;27667;-61
2022/08/24 09:48:28;;;;;;;18.42;12.00;;;;;;;21.52;85.61;98919.34;1667500;85;26020;-60
2022/08/24 09:51:21;;;;;;;20.80;14.87;;;;;;;21.54;84.83;98910.02;1671247;85;25780;-60
2022/08/24 09:54:02;;;;;;;20.35;14.47;;;;;;;21.50;85.76;98914.15;1671656;85;25816;-60
2022/08/24 09:57:07;;;;;;;22.05;14.58;;;;;;;21.54;84.92;98915.59;1671387;85;25733;-60
2022/08/24 10:00:04;;;;;;;23.07;15.05;;;;;;;21.51;84.48;98913.56;1669773;85;28748;-60
2022/08/24 10:02:50;;;;;;;19.30;13.70;;;;;;;21.62;85.23;98901.92;1645510;87;25784;-61
2022/08/24 10:05:50;;;;;;;20.65;15.10;;;;;;;21.98;85.13;98905.67;1672227;85;25864;-60
2022/08/24 10:08:31;;;;;;;22.37;14.25;;;;;;;22.23;84.71;98900.08;1606447;89;25781;-65
2022/08/24 10:11:22;;;;;;;;;;;;;;;22.47;83.58;98904.23;1610554;89;25822;-62
2022/08/24 10:14:23;;;;;;;22.32;14.45;;;;;;;22.59;83.14;98907.33;1608443;89;28089;-62
2022/08/24 10:17:01;;;;;;;21.82;15.13;;;;;;;22.82;82.69;98900.67;1608427;89;25778;-62
2022/08/24 10:19:56;;;;;;;23.95;15.60;;;;;;;22.91;81.88;98901.11;1606461;89;25853;-62
2022/08/24 10:22:59;;;;;;;30.23;17.23;;;;;;;22.95;80.19;98901.14;1607895;89;25742;-63
2022/08/24 10:25:55;;;;;;;23.55;16.25;;;;;;;22.89;79.97;98897.93;1608058;89;25797;-63
2022/08/24 10:28:53;;;;;;;26.57;16.17;;;;;;;22.98;80.46;98899.55;1607719;89;27439;-62
2022/08/24 10:32:02;;;;;;;29.27;16.27;;;;;;;23.23;80.20;98905.22;1616922;88;25802;-61
2022/08/24 10:35:03;;;;;;;26.07;15.53;;;;;;;23.43;79.81;98900.74;1597245;89;25721;-62
2022/08/24 10:39:39;;;;;;;25.70;16.87;;;;;;;23.51;78.31;98895.94;1592116;90;25809;-63
2022/08/24 10:40:48;;;;;;;25.25;16.62;;;;;;;23.47;78.73;98890.95;1597375;89;25711;-63
2022/08/24 10:43:38;;;;;;;28.80;17.50;;;;;;;23.43;78.94;98899.34;1575197;88;27502;-63
2022/08/24 10:46:35;;;;;;;;;;;;;;;23.55;78.72;98903.14;1616333;88;25746;-63
2022/08/24 10:49:31;;;;;;;24.37;15.55;;;;;;;23.66;77.97;98900.37;1614092;88;25683;-61
2022/08/24 10:52:14;;;;;;;28.75;17.30;;;;;;;23.59;76.43;98907.36;1589460;90;25796;-63
2022/08/24 10:54:42;;;;;;;27.00;17.37;;;;;;;23.58;77.76;98904.37;1589559;90;25546;-63
2022/08/24 10:57:16;;;;;;;27.13;16.93;;;;;;;23.64;78.29;98903.37;1589418;90;27429;-63
2022/08/24 11:00:13;;;;;;;30.27;17.48;;;;;;;23.77;77.27;98906.57;1589543;90;25734;-64
2022/08/24 11:02:44;;;;;;;26.30;15.63;;;;;;;23.83;77.37;98907.00;1584143;90;25804;-61
2022/08/24 11:05:16;;;;;;;27.70;16.05;;;;;;;23.92;76.51;98904.61;1589342;90;26704;-61
2022/08/24 11:07:56;;;;;;;27.35;16.62;;;;;;;23.96;76.86;98908.79;1589645;90;26010;-61
2022/08/24 11:10:29;;;;;;;27.02;16.10;;;;;;;24.15;76.97;98907.02;1589275;90;27454;-61
2022/08/24 11:13:18;;;;;;;26.05;16.27;;;;;;;24.41;76.71;98904.99;1589412;90;25722;-60
2022/08/24 11:15:54;;;;;;;24.60;15.48;;;;;;;24.55;75.40;98907.56;1589328;90;25549;-61
2022/08/24 11:18:22;;;;;;;26.87;14.93;;;;;;;24.43;73.36;98911.59;1609208;89;26576;-61
2022/08/24 11:20:52;;;;;;;25.12;15.10;;;;;;;24.27;75.03;98905.80;1634188;87;25817;-60
2022/08/24 11:23:24;;;;;;;27.62;15.72;;;;;;;24.26;73.99;98900.02;1634052;87;28239;-60
2022/08/24 11:26:10;;;;;;;26.93;16.55;;;;;;;24.18;74.95;98907.62;1633961;87;25553;-60
2022/08/24 11:28:46;;;;;;;27.80;17.48;;;;;;;24.29;75.25;98902.02;1645123;85;25529;-61
2022/08/24 11:31:30;;;;;;;27.85;16.48;;;;;;;24.44;75.07;98908.39;1684372;85;25975;-64
2022/08/24 11:34:06;;;;;;;28.20;16.32;;;;;;;24.42;72.36;98903.81;1686894;84;25627;-64
2022/08/24 11:36:36;;;;;;;23.67;14.87;;;;;;;24.53;75.20;98902.98;1686624;85;26977;-62
2022/08/24 11:39:22;;;;;;;25.43;14.25;;;;;;;24.80;72.73;98900.52;1687020;85;25689;-62
2022/08/24 11:42:00;;;;;;;27.70;16.57;;;;;;;24.78;71.61;98899.33;1687131;85;25688;-62
2022/08/24 11:45:04;;;;;;;24.50;15.40;;;;;;;24.94;74.37;98896.09;1680641;85;26501;-62
2022/08/24 11:48:05;;;;;;;25.55;15.28;;;;;;;25.20;73.45;98895.37;1686594;85;25438;-61
2022/08/24 11:50:47;;;;;;;23.73;14.43;;;;;;;25.39;71.39;98896.86;1686664;85;28369;-61
2022/08/24 11:53:24;;;;;;;30.15;16.23;;;;;;;25.62;72.55;98893.36;1687024;85;25718;-62
2022/08/24 11:56:18;;;;;;;24.23;15.88;;;;;;;25.67;72.58;98897.92;1680643;85;25535;-62